createdAt,value
2018-09-04T00:01:50.343Z,95.80
2018-09-04T00:04:24.584Z,95.90
2018-09-04T00:06:58.881Z,95.90
2018-09-04T00:09:33.116Z,95.90
2018-09-04T00:12:07.486Z,95.80
2018-09-04T00:14:41.661Z,95.80
2018-09-04T00:17:16.061Z,95.80
2018-09-04T00:19:50.269Z,96.30
2018-09-04T00:22:24.547Z,96.80
2018-09-04T00:24:58.806Z,96.70
2018-09-04T00:27:32.981Z,96.60
2018-09-04T00:30:07.738Z,96.80
2018-09-04T00:32:41.985Z,96.60
2018-09-04T00:35:16.134Z,97.00
2018-09-04T00:37:50.287Z,96.40
2018-09-04T00:40:24.437Z,96.40
2018-09-04T00:42:58.561Z,96.40
2018-09-04T00:45:32.898Z,96.40
2018-09-04T00:48:07.258Z,96.50
2018-09-04T00:50:41.592Z,96.60
2018-09-04T00:53:15.930Z,96.50
2018-09-04T00:55:50.299Z,96.50
2018-09-04T00:58:24.558Z,96.50
2018-09-04T01:00:58.893Z,96.70
2018-09-04T01:03:33.177Z,96.70
2018-09-04T01:06:07.466Z,96.60
2018-09-04T01:08:41.771Z,96.50
2018-09-04T01:11:16.221Z,96.60
2018-09-04T01:13:50.474Z,96.50
2018-09-04T01:16:24.756Z,96.60
2018-09-04T01:18:59.182Z,96.40
2018-09-04T01:21:33.467Z,96.30
2018-09-04T01:24:07.738Z,96.60
2018-09-04T01:26:42.058Z,96.60
2018-09-04T01:29:16.249Z,96.60
2018-09-04T01:31:50.578Z,96.50
2018-09-04T01:34:24.959Z,96.60
2018-09-04T01:36:59.287Z,96.60
2018-09-04T01:39:33.546Z,96.60
2018-09-04T01:42:07.785Z,96.50
2018-09-04T01:44:42.127Z,96.60
2018-09-04T01:47:16.421Z,96.60
2018-09-04T01:49:50.830Z,96.60
2018-09-04T01:52:25.155Z,96.40
2018-09-04T01:54:59.496Z,96.40
2018-09-04T01:57:33.694Z,96.40
2018-09-04T02:00:08.705Z,96.60
2018-09-04T02:02:42.969Z,96.60
2018-09-04T02:05:17.274Z,96.60
2018-09-04T02:07:51.570Z,96.50
2018-09-04T02:10:25.833Z,96.50
2018-09-04T02:13:00.179Z,96.60
2018-09-04T02:15:34.478Z,96.60
2018-09-04T02:18:08.889Z,96.60
2018-09-04T02:20:43.049Z,96.60
2018-09-04T02:23:17.530Z,96.40
2018-09-04T02:25:51.692Z,96.40
2018-09-04T02:28:26.082Z,96.50
2018-09-04T02:31:00.682Z,96.60
2018-09-04T02:33:35.015Z,96.60
2018-09-04T02:36:09.426Z,96.60
2018-09-04T02:38:43.772Z,96.50
2018-09-04T02:41:18.195Z,96.50
2018-09-04T02:43:52.461Z,96.50
2018-09-04T02:46:26.622Z,96.40
2018-09-04T02:49:00.893Z,96.40
2018-09-04T02:51:35.417Z,96.50
2018-09-04T02:54:09.731Z,96.70
2018-09-04T02:56:44.013Z,96.70
2018-09-04T02:59:18.289Z,96.80
2018-09-04T03:01:52.653Z,96.80
2018-09-04T03:04:26.913Z,96.50
2018-09-04T03:07:01.221Z,96.70
2018-09-04T03:09:35.539Z,96.60
2018-09-04T03:12:09.706Z,96.50
2018-09-04T03:14:44.086Z,96.50
2018-09-04T03:17:18.315Z,96.50
2018-09-04T03:19:52.702Z,96.80
2018-09-04T03:22:27.095Z,96.80
2018-09-04T03:25:02.026Z,97.10
2018-09-04T03:27:36.309Z,96.90
2018-09-04T03:30:10.556Z,96.80
2018-09-04T03:32:45.006Z,96.90
2018-09-04T03:35:19.227Z,97.00
2018-09-04T03:37:53.700Z,97.00
2018-09-04T03:40:28.072Z,97.00
2018-09-04T03:43:02.518Z,97.10
2018-09-04T03:45:36.824Z,97.20
2018-09-04T03:48:11.259Z,97.30
2018-09-04T03:50:45.438Z,97.40
2018-09-04T03:53:19.849Z,97.40
2018-09-04T03:55:54.258Z,97.60
2018-09-04T03:58:28.689Z,97.60
2018-09-04T04:01:03.040Z,97.80
2018-09-04T04:03:37.189Z,97.60
2018-09-04T04:06:11.610Z,97.70
2018-09-04T04:08:46.059Z,97.60
2018-09-04T04:11:20.330Z,97.60
2018-09-04T04:13:54.698Z,97.70
2018-09-04T04:16:28.882Z,97.60
2018-09-04T04:19:03.228Z,97.50
2018-09-04T04:21:37.557Z,97.60
2018-09-04T04:24:11.790Z,97.70
2018-09-04T04:26:46.042Z,97.60
2018-09-04T04:29:20.271Z,97.50
2018-09-04T04:31:54.647Z,97.60
2018-09-04T04:34:28.976Z,97.60
2018-09-04T04:37:03.130Z,97.60
2018-09-04T04:39:37.409Z,97.80
2018-09-04T04:42:11.690Z,97.70
2018-09-04T04:44:45.946Z,97.80
2018-09-04T04:47:24.554Z,98.00
2018-09-04T04:49:59.182Z,98.10
2018-09-04T04:52:33.478Z,98.10
2018-09-04T04:55:07.827Z,98.30
2018-09-04T04:57:41.981Z,98.30
2018-09-04T05:00:16.197Z,98.50
2018-09-04T05:02:50.482Z,98.50
2018-09-04T05:05:24.771Z,98.60
2018-09-04T05:07:59.059Z,98.50
2018-09-04T05:10:33.503Z,98.60
2018-09-04T05:13:07.766Z,98.60
2018-09-04T05:15:42.066Z,98.60
2018-09-04T05:18:16.375Z,98.70
2018-09-04T05:20:50.642Z,98.70
2018-09-04T05:23:24.955Z,98.50
2018-09-04T05:25:59.329Z,98.40
2018-09-04T05:28:33.665Z,98.70
2018-09-04T05:31:08.018Z,98.70
2018-09-04T05:33:43.403Z,98.80
2018-09-04T05:36:17.534Z,98.50
2018-09-04T05:38:51.890Z,98.70
2018-09-04T05:41:26.386Z,98.40
2018-09-04T05:44:01.233Z,98.60
2018-09-04T05:46:38.154Z,98.50
2018-09-04T05:49:13.814Z,98.50
2018-09-04T05:51:48.108Z,98.40
2018-09-04T05:54:22.345Z,98.60
2018-09-04T05:56:56.650Z,98.40
2018-09-04T05:59:30.958Z,98.40
2018-09-04T06:02:05.140Z,98.30
2018-09-04T06:04:39.346Z,98.40
2018-09-04T06:07:13.627Z,98.20
2018-09-04T06:09:47.859Z,98.20
2018-09-04T06:12:22.266Z,97.90
2018-09-04T06:14:56.548Z,97.70
2018-09-04T06:17:30.874Z,97.80
2018-09-04T06:20:05.447Z,97.90
2018-09-04T06:22:39.618Z,97.70
2018-09-04T06:25:13.919Z,97.90
2018-09-04T06:27:48.251Z,97.80
2018-09-04T06:30:22.678Z,97.50
2018-09-04T06:32:57.054Z,97.40
2018-09-04T06:35:31.350Z,97.40
2018-09-04T06:38:05.827Z,97.90
2018-09-04T06:40:40.042Z,97.30
2018-09-04T06:43:14.331Z,97.30
2018-09-04T06:45:48.626Z,97.10
2018-09-04T06:48:22.802Z,97.30
2018-09-04T06:50:57.082Z,97.20
2018-09-04T06:53:31.496Z,97.10
2018-09-04T06:56:06.590Z,97.20
2018-09-04T06:58:40.778Z,97.20
2018-09-04T07:01:15.130Z,96.80
2018-09-04T07:03:49.518Z,96.80
2018-09-04T07:06:23.809Z,96.70
2018-09-04T07:08:58.166Z,96.70
2018-09-04T07:11:32.502Z,96.80
2018-09-04T07:14:06.769Z,96.60
2018-09-04T07:16:41.445Z,96.20
2018-09-04T07:19:18.301Z,96.50
2018-09-04T07:21:53.438Z,96.20
2018-09-04T07:24:27.660Z,96.20
2018-09-04T07:27:02.082Z,96.00
2018-09-04T07:29:36.382Z,95.90
2018-09-04T07:32:10.691Z,95.90
2018-09-04T07:34:44.974Z,95.70
2018-09-04T07:37:19.389Z,95.80
2018-09-04T07:39:53.739Z,95.60
2018-09-04T07:42:27.993Z,95.40
2018-09-04T07:45:02.306Z,95.30
2018-09-04T07:47:36.613Z,94.90
2018-09-04T07:50:11.354Z,95.10
2018-09-04T07:52:45.571Z,95.00
2018-09-04T07:55:19.778Z,94.70
2018-09-04T07:57:54.041Z,95.00
2018-09-04T08:00:28.199Z,94.80
2018-09-04T08:03:02.585Z,94.70
2018-09-04T08:05:36.841Z,94.50
2018-09-04T08:08:11.111Z,94.40
2018-09-04T08:10:45.426Z,93.90
2018-09-04T08:13:19.646Z,93.90
2018-09-04T08:15:53.932Z,93.80
2018-09-04T08:18:28.355Z,93.40
2018-09-04T08:21:02.622Z,93.40
2018-09-04T08:23:36.999Z,93.20
2018-09-04T08:26:11.285Z,93.40
2018-09-04T08:28:45.455Z,93.20
2018-09-04T08:31:19.876Z,93.00
2018-09-04T08:33:54.112Z,92.90
2018-09-04T08:36:28.594Z,92.90
2018-09-04T08:39:03.224Z,93.00
2018-09-04T08:41:37.502Z,92.30
2018-09-04T08:44:11.628Z,92.50
2018-09-04T08:46:45.921Z,92.90
2018-09-04T08:49:20.326Z,92.70
2018-09-04T08:51:54.764Z,92.40
2018-09-04T08:54:28.979Z,91.70
2018-09-04T08:57:03.319Z,91.80
2018-09-04T08:59:37.658Z,91.80
2018-09-04T09:02:11.866Z,91.50
2018-09-04T09:04:46.082Z,91.80
2018-09-04T09:07:20.689Z,91.10
2018-09-04T09:09:55.067Z,91.40
2018-09-04T09:12:29.511Z,91.30
2018-09-04T09:15:03.701Z,90.40
2018-09-04T09:17:37.938Z,90.80
2018-09-04T09:20:12.159Z,90.90
2018-09-04T09:22:46.338Z,90.70
2018-09-04T09:25:20.806Z,90.30
2018-09-04T09:27:55.042Z,88.30
2018-09-04T09:30:29.355Z,88.40
2018-09-04T09:33:03.731Z,89.20
2018-09-04T09:35:38.041Z,87.90
2018-09-04T09:38:12.363Z,87.90
2018-09-04T09:40:46.641Z,88.30
2018-09-04T09:43:21.074Z,88.60
2018-09-04T09:45:55.350Z,88.10
2018-09-04T09:48:35.102Z,88.20
2018-09-04T09:51:10.406Z,86.30
2018-09-04T09:53:44.753Z,85.80
2018-09-04T09:56:19.130Z,86.50
2018-09-04T09:58:53.353Z,86.50
2018-09-04T10:01:30.661Z,84.80
2018-09-04T10:04:06.425Z,84.30
2018-09-04T10:06:40.591Z,83.50
2018-09-04T10:09:14.910Z,84.70
2018-09-04T10:11:49.201Z,83.70
2018-09-04T10:14:23.375Z,82.70
2018-09-04T10:16:57.581Z,82.30
2018-09-04T10:19:32.246Z,83.00
2018-09-04T10:22:06.499Z,82.40
2018-09-04T10:24:40.778Z,80.60
2018-09-04T10:27:15.207Z,81.10
2018-09-04T10:29:49.618Z,80.80
2018-09-04T10:32:23.973Z,78.60
2018-09-04T10:34:58.399Z,79.10
2018-09-04T10:37:32.682Z,80.70
2018-09-04T10:40:42.554Z,79.60
2018-09-04T10:43:16.818Z,80.00
2018-09-04T10:45:56.419Z,78.40
2018-09-04T10:48:30.896Z,79.00
2018-09-04T10:51:05.624Z,77.40
2018-09-04T10:53:39.885Z,77.10
2018-09-04T10:56:14.214Z,76.40
2018-09-04T10:58:48.405Z,77.40
2018-09-04T11:01:22.734Z,75.90
2018-09-04T11:03:57.283Z,75.90
2018-09-04T11:06:31.675Z,75.90
2018-09-04T11:09:09.352Z,75.70
2018-09-04T11:11:43.635Z,74.90
2018-09-04T11:14:17.965Z,74.60
2018-09-04T11:16:52.402Z,72.80
2018-09-04T11:19:26.769Z,73.80
2018-09-04T11:22:01.186Z,73.20
2018-09-04T11:24:35.618Z,71.40
2018-09-04T11:27:09.969Z,71.10
2018-09-04T11:29:44.126Z,70.50
2018-09-04T11:32:18.446Z,71.00
2018-09-04T11:34:52.663Z,71.20
2018-09-04T11:37:27.027Z,68.60
2018-09-04T11:40:01.322Z,69.60
2018-09-04T11:42:35.661Z,67.70
2018-09-04T11:45:10.508Z,67.60
2018-09-04T11:47:44.860Z,67.40
2018-09-04T11:50:19.158Z,67.70
2018-09-04T11:52:53.405Z,65.70
2018-09-04T11:55:27.758Z,67.20
2018-09-04T11:58:02.067Z,66.90
2018-09-04T12:00:38.554Z,66.00
2018-09-04T12:03:14.094Z,66.20
2018-09-04T12:05:48.474Z,66.00
2018-09-04T12:08:22.647Z,65.90
2018-09-04T12:10:56.983Z,64.70
2018-09-04T12:13:31.982Z,65.20
2018-09-04T12:16:06.195Z,63.00
2018-09-04T12:18:40.423Z,62.60
2018-09-04T12:21:14.783Z,63.00
2018-09-04T12:23:49.029Z,61.60
2018-09-04T12:26:23.218Z,60.20
2018-09-04T12:28:57.564Z,60.10
2018-09-04T12:31:32.182Z,60.50
2018-09-04T12:34:06.485Z,60.40
2018-09-04T12:36:40.712Z,61.60
2018-09-04T12:39:15.010Z,59.70
2018-09-04T12:41:49.985Z,59.30
2018-09-04T12:44:24.263Z,60.90
2018-09-04T12:46:58.477Z,59.90
2018-09-04T12:49:32.770Z,60.60
2018-09-04T12:52:07.160Z,59.10
2018-09-04T12:54:41.479Z,58.10
2018-09-04T12:57:15.734Z,58.60
2018-09-04T12:59:50.075Z,59.00
2018-09-04T13:02:24.246Z,57.90
2018-09-04T13:04:58.525Z,58.20
2018-09-04T13:07:32.786Z,59.20
2018-09-04T13:10:07.078Z,59.00
2018-09-04T13:12:41.290Z,58.80
2018-09-04T13:15:16.040Z,58.70
2018-09-04T13:17:50.378Z,59.20
2018-09-04T13:20:24.759Z,58.40
2018-09-04T13:22:59.058Z,59.00
2018-09-04T13:25:33.336Z,58.00
2018-09-04T13:28:07.927Z,57.60
2018-09-04T13:30:42.253Z,57.60
2018-09-04T13:33:16.676Z,57.70
2018-09-04T13:35:50.958Z,58.30
2018-09-04T13:38:25.214Z,59.40
2018-09-04T13:41:04.962Z,58.90
2018-09-04T13:43:39.865Z,58.10
2018-09-04T13:46:14.087Z,57.80
2018-09-04T13:48:48.218Z,58.80
2018-09-04T13:51:22.419Z,59.10
2018-09-04T13:53:56.794Z,59.50
2018-09-04T13:56:31.072Z,60.00
2018-09-04T13:59:05.450Z,60.70
2018-09-04T14:01:39.703Z,61.30
2018-09-04T14:04:13.956Z,61.70
2018-09-04T14:06:48.330Z,59.60
2018-09-04T14:09:22.594Z,59.50
2018-09-04T14:11:56.863Z,59.60
2018-09-04T14:14:31.159Z,58.40
2018-09-04T14:17:07.623Z,58.90
2018-09-04T14:19:41.918Z,57.60
2018-09-04T14:22:16.618Z,58.10
2018-09-04T14:24:50.998Z,56.50
2018-09-04T14:27:25.450Z,56.30
2018-09-04T14:30:16.418Z,56.20
2018-09-04T14:32:33.970Z,55.40
2018-09-04T14:35:08.575Z,56.00
2018-09-04T14:37:42.950Z,56.60
2018-09-04T14:40:17.101Z,56.90
2018-09-04T14:42:51.701Z,56.70
2018-09-04T14:45:25.906Z,55.10
2018-09-04T14:48:00.299Z,56.00
2018-09-04T14:50:34.578Z,56.70
2018-09-04T14:53:09.222Z,57.30
2018-09-04T14:55:43.370Z,56.00
2018-09-04T14:58:17.797Z,54.10
2018-09-04T15:00:51.949Z,53.40
2018-09-04T15:03:26.325Z,54.80
2018-09-04T15:06:00.571Z,55.00
2018-09-04T15:08:34.883Z,53.90
2018-09-04T15:11:09.202Z,54.70
2018-09-04T15:13:43.510Z,54.50
2018-09-04T15:16:17.932Z,53.90
2018-09-04T15:18:52.237Z,53.90
2018-09-04T15:21:26.421Z,54.30
2018-09-04T15:24:00.698Z,55.00
2018-09-04T15:26:34.907Z,54.40
2018-09-04T15:29:09.195Z,53.20
2018-09-04T15:31:43.602Z,52.10
2018-09-04T15:34:17.949Z,52.40
2018-09-04T15:36:52.246Z,53.10
2018-09-04T15:39:26.470Z,51.40
2018-09-04T15:42:00.634Z,50.70
2018-09-04T15:44:34.902Z,51.70
2018-09-04T15:47:09.334Z,51.70
2018-09-04T15:49:47.582Z,52.90
2018-09-04T15:52:21.982Z,53.40
2018-09-04T15:54:56.390Z,53.70
2018-09-04T15:57:30.790Z,52.80
2018-09-04T16:00:05.456Z,52.70
2018-09-04T16:02:39.650Z,52.70
2018-09-04T16:05:14.101Z,53.50
2018-09-04T16:07:48.401Z,53.60
2018-09-04T16:10:22.860Z,52.30
2018-09-04T16:12:57.030Z,52.40
2018-09-04T16:15:31.292Z,53.50
2018-09-04T16:18:05.642Z,52.50
2018-09-04T16:20:39.970Z,51.30
2018-09-04T16:23:14.168Z,52.60
2018-09-04T16:25:48.463Z,52.80
2018-09-04T16:28:22.706Z,52.60
2018-09-04T16:30:57.092Z,52.70
2018-09-04T16:33:31.409Z,52.70
2018-09-04T16:36:05.993Z,52.50
2018-09-04T16:38:40.134Z,52.30
2018-09-04T16:41:14.454Z,52.60
2018-09-04T16:43:48.747Z,51.70
2018-09-04T16:46:22.997Z,52.00
2018-09-04T16:48:57.330Z,53.20
2018-09-04T16:51:31.594Z,52.30
2018-09-04T16:54:05.918Z,53.20
2018-09-04T16:56:40.182Z,53.10
2018-09-04T16:59:14.462Z,52.40
2018-09-04T17:01:48.782Z,53.30
2018-09-04T17:04:23.175Z,53.40
2018-09-04T17:06:57.478Z,53.30
2018-09-04T17:09:31.666Z,53.50
2018-09-04T17:12:05.943Z,54.40
2018-09-04T17:14:40.342Z,54.60
2018-09-04T17:17:14.602Z,55.30
2018-09-04T17:19:48.934Z,55.30
2018-09-04T17:22:23.230Z,55.30
2018-09-04T17:24:57.634Z,55.60
2018-09-04T17:27:31.919Z,56.60
2018-09-04T17:30:06.473Z,56.90
2018-09-04T17:32:40.754Z,57.10
2018-09-04T17:35:15.202Z,57.10
2018-09-04T17:37:49.526Z,57.60
2018-09-04T17:40:23.899Z,58.40
2018-09-04T17:42:58.085Z,59.00
2018-09-04T17:45:32.414Z,58.90
2018-09-04T17:48:06.819Z,59.30
2018-09-04T17:50:41.131Z,59.70
2018-09-04T17:53:15.419Z,59.60
2018-09-04T17:55:49.675Z,59.60
2018-09-04T17:58:23.950Z,60.00
2018-09-04T18:00:58.211Z,60.90
2018-09-04T18:03:32.560Z,60.40
2018-09-04T18:06:06.722Z,60.70
2018-09-04T18:08:41.022Z,60.70
2018-09-04T18:11:15.559Z,60.90
2018-09-04T18:13:49.906Z,61.30
2018-09-04T18:16:24.170Z,61.40
2018-09-04T18:18:58.607Z,61.30
2018-09-04T18:21:32.837Z,61.60
2018-09-04T18:24:07.273Z,61.40
2018-09-04T18:26:41.575Z,61.90
2018-09-04T18:29:16.222Z,62.10
2018-09-04T18:31:50.526Z,62.00
2018-09-04T18:34:24.921Z,62.20
2018-09-04T18:36:59.370Z,62.50
2018-09-04T18:39:33.686Z,63.00
2018-09-04T18:42:07.866Z,63.50
2018-09-04T18:44:42.091Z,63.60
2018-09-04T18:47:16.317Z,64.00
2018-09-04T18:49:50.766Z,64.30
2018-09-04T18:52:25.055Z,64.50
2018-09-04T18:54:59.822Z,64.80
2018-09-04T18:57:33.998Z,64.90
2018-09-04T19:00:11.118Z,65.00
2018-09-04T19:02:45.967Z,65.70
2018-09-04T19:05:20.195Z,65.90
2018-09-04T19:07:54.489Z,65.70
2018-09-04T19:10:28.994Z,66.00
2018-09-04T19:13:03.714Z,66.20
2018-09-04T19:15:38.007Z,66.30
2018-09-04T19:18:12.280Z,66.90
2018-09-04T19:20:46.530Z,67.00
2018-09-04T19:23:21.031Z,67.70
2018-09-04T19:25:55.310Z,67.70
2018-09-04T19:28:29.699Z,67.90
2018-09-04T19:31:03.983Z,68.30
2018-09-04T19:33:38.345Z,68.60
2018-09-04T19:36:12.607Z,68.80
2018-09-04T19:38:46.945Z,68.80
2018-09-04T19:41:21.209Z,69.50
2018-09-04T19:43:55.468Z,69.10
2018-09-04T19:46:29.771Z,69.60
2018-09-04T19:49:04.196Z,70.40
2018-09-04T19:51:38.445Z,70.60
2018-09-04T19:54:12.719Z,70.70
2018-09-04T19:56:47.037Z,70.40
2018-09-04T19:59:21.393Z,70.70
2018-09-04T20:01:55.645Z,71.20
2018-09-04T20:04:30.018Z,71.50
2018-09-04T20:07:04.329Z,72.00
2018-09-04T20:09:38.581Z,72.00
2018-09-04T20:12:12.793Z,72.70
2018-09-04T20:14:47.092Z,72.80
2018-09-04T20:17:21.702Z,73.00
2018-09-04T20:19:56.167Z,73.00
2018-09-04T20:22:30.486Z,73.70
2018-09-04T20:25:04.822Z,74.20
2018-09-04T20:27:39.163Z,74.80
2018-09-04T20:30:13.447Z,75.50
2018-09-04T20:32:47.763Z,75.30
2018-09-04T20:35:22.268Z,76.00
2018-09-04T20:37:56.531Z,75.80
2018-09-04T20:40:30.962Z,76.50
2018-09-04T20:43:05.238Z,76.20
2018-09-04T20:45:39.554Z,76.50
2018-09-04T20:48:13.749Z,77.20
2018-09-04T20:50:48.415Z,77.10
2018-09-04T20:53:22.777Z,77.30
2018-09-04T20:55:56.935Z,77.00
2018-09-04T20:58:42.734Z,77.50
2018-09-04T21:01:28.413Z,77.30
2018-09-04T21:04:13.981Z,77.60
2018-09-04T21:06:49.662Z,77.60
2018-09-04T21:09:35.627Z,77.70
2018-09-04T21:12:10.268Z,78.60
2018-09-04T21:14:44.457Z,78.10
2018-09-04T21:17:18.850Z,78.00
2018-09-04T21:19:53.035Z,78.50
2018-09-04T21:22:27.362Z,79.20
2018-09-04T21:25:01.612Z,80.00
2018-09-04T21:27:35.838Z,79.80
2018-09-04T21:30:10.242Z,80.10
2018-09-04T21:32:44.503Z,80.30
2018-09-04T21:35:18.812Z,80.30
2018-09-04T21:37:53.182Z,80.70
2018-09-04T21:40:27.383Z,81.40
2018-09-04T21:43:01.765Z,81.80
2018-09-04T21:45:36.048Z,81.90
2018-09-04T21:48:10.233Z,82.20
2018-09-04T21:50:44.447Z,82.20
2018-09-04T21:53:18.921Z,82.10
2018-09-04T21:55:53.195Z,82.50
2018-09-04T21:58:27.644Z,82.20
2018-09-04T22:01:01.892Z,82.00
2018-09-04T22:03:36.318Z,82.10
2018-09-04T22:06:10.634Z,81.90
2018-09-04T22:08:45.257Z,81.90
2018-09-04T22:11:19.622Z,82.20
2018-09-04T22:13:53.883Z,82.30
2018-09-04T22:16:28.306Z,81.80
2018-09-04T22:19:02.594Z,81.60
2018-09-04T22:21:36.871Z,81.70
2018-09-04T22:24:11.282Z,81.40
2018-09-04T22:26:45.672Z,81.40
2018-09-04T22:29:19.959Z,81.70
2018-09-04T22:31:54.268Z,81.70
2018-09-04T22:34:28.637Z,81.60
2018-09-04T22:37:03.799Z,81.90
2018-09-04T22:39:37.955Z,81.80
2018-09-04T22:42:12.190Z,81.50
2018-09-04T22:44:46.410Z,81.80
2018-09-04T22:47:20.793Z,81.90
2018-09-04T22:50:00.558Z,81.90
2018-09-04T22:52:34.742Z,82.10
2018-09-04T22:55:11.055Z,81.90
2018-09-04T22:57:45.243Z,82.20
2018-09-04T23:00:19.619Z,82.10
2018-09-04T23:02:53.847Z,82.30
2018-09-04T23:05:28.130Z,82.50
2018-09-04T23:08:02.309Z,82.10
2018-09-04T23:10:36.502Z,82.10
2018-09-04T23:13:10.838Z,82.40
2018-09-04T23:15:45.186Z,81.90
2018-09-04T23:18:19.540Z,82.20
2018-09-04T23:20:53.929Z,82.10
2018-09-04T23:23:28.326Z,82.30
2018-09-04T23:26:02.754Z,82.40
2018-09-04T23:28:37.082Z,81.80
2018-09-04T23:31:11.515Z,81.80
2018-09-04T23:33:45.893Z,81.70
2018-09-04T23:36:20.018Z,81.60
2018-09-04T23:38:54.526Z,82.40
2018-09-04T23:41:28.697Z,81.80
2018-09-04T23:44:03.093Z,82.00
2018-09-04T23:46:37.340Z,82.40
2018-09-04T23:49:11.646Z,82.90
2018-09-04T23:51:45.820Z,82.60
2018-09-04T23:54:19.982Z,82.60
2018-09-04T23:56:54.369Z,82.60
2018-09-04T23:59:28.628Z,82.50
